Dades meteomassalio
Diari Summary for Octubre 8, 2017 Units:  Metric    English   Both
« Previous Day
Next Day »
Diari Semanal Mensual Anual Personalitzat
  Maxima: Minima: Mijana:
Temperatura: -17.8 °C -15 °C -10.4 °C
Rosada: -17.8 °C -19.3 °C -15.4 °C
Humitat: Humidity % 24 % 60 %
Velocitat del vent: 0 km/h 0 km/h 5 km/h
Racha vent: 0 km/h - -
Vent:- - SW
Pressio: 0 hPa 34533.8 hPa -
Pluja: 0 mm    
Historical Graphs
 
 
Tabular Data for Octubre 8, 2017
Time Temperature Dew Point Pressure Wind Wind Speed Wind Gust Humidity Rainfall Rate (Hourly) solar Conditions
-17.8 °C -17.8 °C 0 hPa Calm     Humidity % 0 mm SolarRadiationWatts/m^2 W/m2 Conditions
00:02 -12.2 °C -14.1 °C 34693 hPa Calm     80 % 0 mm 0.0 W/m2 CLR
00:07 -12.6 °C -14.3 °C 34693 hPa Calm     81 % 0 mm 0.0 W/m2 CLR
00:17 -12.6 °C -14.3 °C 34693 hPa Calm     81 % 0 mm 0.0 W/m2 CLR
00:22 -12.6 °C -14.2 °C 34693 hPa Calm     82 % 0 mm 0.0 W/m2 CLR
00:27 -12.6 °C -14.2 °C 34693 hPa Calm     82 % 0 mm 0.0 W/m2 CLR
00:32 -12.6 °C -14.1 °C 34693 hPa Calm     83 % 0 mm 0.0 W/m2 CLR
00:37 -12.6 °C -14.1 °C 34682.8 hPa Calm     83 % 0 mm 0.0 W/m2 CLR
00:42 -12.6 °C -14.1 °C 34682.8 hPa Calm     83 % 0 mm 0.0 W/m2 CLR
00:47 -12.6 °C -14.1 °C 34682.8 hPa Calm     83 % 0 mm 0.0 W/m2 CLR
00:52 -12.6 °C -13.9 °C 34682.8 hPa Calm     84 % 0 mm 0.0 W/m2 CLR
00:57 -12.6 °C -13.9 °C 34682.8 hPa Calm     84 % 0 mm 0.0 W/m2 CLR
01:02 -12.8 °C -14.3 °C 34682.8 hPa Calm     84 % 0 mm 0.0 W/m2 CLR
01:07 -12.8 °C -14.3 °C 34682.8 hPa Calm     84 % 0 mm 0.0 W/m2 CLR
01:12 -12.8 °C -14.3 °C 34682.8 hPa Calm     84 % 0 mm 0.0 W/m2 CLR
01:17 -13.2 °C -14.6 °C 34682.8 hPa Calm     84 % 0 mm 0.0 W/m2 CLR
01:22 -12.8 °C -14.3 °C 34682.8 hPa Calm     84 % 0 mm 0.0 W/m2 CLR
01:27 -12.8 °C -14.3 °C 34682.8 hPa Calm     84 % 0 mm 0.0 W/m2 CLR
01:32 -12.8 °C -14.2 °C 34682.8 hPa Calm     85 % 0 mm 0.0 W/m2 CLR
01:37 -12.8 °C -14.2 °C 34682.8 hPa SE 6 km/h 6 km/h 85 % 0 mm 0.0 W/m2 CLR
01:42 -12.8 °C -14.1 °C 34682.8 hPa SE 9 km/h 9 km/h 86 % 0 mm 0.0 W/m2 CLR
01:47 -12.8 °C -14.1 °C 34682.8 hPa SSE 5.1 km/h 5.1 km/h 86 % 0 mm 0.0 W/m2 CLR
01:52 -12.8 °C -14.1 °C 34682.8 hPa SSE 9 km/h 9 km/h 86 % 0 mm 0.0 W/m2 CLR
01:57 -12.8 °C -14.1 °C 34682.8 hPa Calm     86 % 0 mm 0.0 W/m2 CLR
02:02 -13.2 °C -14.4 °C 34682.8 hPa Calm     86 % 0 mm 0.0 W/m2 CLR
02:07 -13.2 °C -14.4 °C 34682.8 hPa Calm     86 % 0 mm 0.0 W/m2 CLR
02:12 -13.2 °C -14.4 °C 34682.8 hPa Calm     86 % 0 mm 0.0 W/m2 CLR
02:17 -13.2 °C -14.4 °C 34682.8 hPa SSE 3.1 km/h   86 % 0 mm 0.0 W/m2 CLR
02:22 -13.4 °C -14.7 °C 34682.8 hPa Calm     86 % 0 mm 0.0 W/m2 CLR
02:27 -13.4 °C -14.6 °C 34682.8 hPa Calm     87 % 0 mm 0.0 W/m2 CLR
02:32 -13.4 °C -14.6 °C 34682.8 hPa Calm     87 % 0 mm 0.0 W/m2 CLR
02:37 -13.4 °C -14.6 °C 34682.8 hPa Calm     87 % 0 mm 0.0 W/m2 CLR
02:42 -13.4 °C -14.5 °C 34682.8 hPa SE 9 km/h 9 km/h 88 % 0 mm 0.0 W/m2 CLR
02:47 -13.4 °C -14.5 °C 34682.8 hPa SE 5.1 km/h 5.1 km/h 88 % 0 mm 0.0 W/m2 CLR
02:52 -13.8 °C -14.8 °C 34682.8 hPa Calm     88 % 0 mm 0.0 W/m2 CLR
02:57 -13.8 °C -14.8 °C 34682.8 hPa Calm     88 % 0 mm 0.0 W/m2 CLR
03:02 -13.8 °C -14.8 °C 34682.8 hPa Calm     88 % 0 mm 0.0 W/m2 CLR
03:08 -13.8 °C -14.8 °C 34682.8 hPa SE 9 km/h 9 km/h 88 % 0 mm 0.0 W/m2 CLR
03:13 -13.4 °C -14.5 °C 34669.3 hPa SSE 9 km/h 9 km/h 88 % 0 mm 0.0 W/m2 CLR
03:18 -13.4 °C -14.4 °C 34669.3 hPa SSE 9 km/h 9 km/h 89 % 0 mm 0.0 W/m2 CLR
03:23 -13.4 °C -14.5 °C 34669.3 hPa Calm     88 % 0 mm 0.0 W/m2 CLR
03:28 -13.4 °C -14.5 °C 34669.3 hPa Calm     88 % 0 mm 0.0 W/m2 CLR
03:38 -13.8 °C -14.8 °C 34669.3 hPa Calm     88 % 0 mm 0.0 W/m2 CLR
03:43 -13.8 °C -14.8 °C 34669.3 hPa Calm     88 % 0 mm 0.0 W/m2 CLR
03:48 -13.8 °C -14.8 °C 34669.3 hPa Calm     88 % 0 mm 0.0 W/m2 CLR
03:53 -13.8 °C -14.8 °C 34669.3 hPa Calm     88 % 0 mm 0.0 W/m2 CLR
03:58 -13.8 °C -14.7 °C 34659.1 hPa Calm     89 % 0 mm 0.0 W/m2 CLR
04:03 -13.8 °C -14.8 °C 34669.3 hPa Calm     88 % 0 mm 0.0 W/m2 CLR
04:13 -13.4 °C -14.4 °C 34659.1 hPa Calm     89 % 0 mm 0.0 W/m2 CLR
04:18 -13.4 °C -14.4 °C 34659.1 hPa Calm     89 % 0 mm 0.0 W/m2 CLR
04:23 -13.8 °C -14.7 °C 34659.1 hPa Calm     89 % 0 mm 0.0 W/m2 CLR
04:28 -13.8 °C -14.7 °C 34659.1 hPa Calm     89 % 0 mm 0.0 W/m2 CLR
04:33 -13.8 °C -14.7 °C 34659.1 hPa Calm     89 % 0 mm 0.0 W/m2 CLR
04:38 -13.8 °C -14.7 °C 34659.1 hPa Calm     89 % 0 mm 0.0 W/m2 CLR
04:43 -13.8 °C -14.7 °C 34659.1 hPa Calm     89 % 0 mm 0.0 W/m2 CLR
04:48 -13.8 °C -14.7 °C 34659.1 hPa Calm     89 % 0 mm 0.0 W/m2 CLR
04:53 -13.8 °C -14.7 °C 34659.1 hPa Calm     89 % 0 mm 0.0 W/m2 CLR
04:58 -13.8 °C -14.7 °C 34659.1 hPa Calm     89 % 0 mm 0.0 W/m2 CLR
05:03 -13.8 °C -14.7 °C 34659.1 hPa Calm     89 % 0 mm 0.0 W/m2 CLR
05:08 -13.8 °C -14.6 °C 34659.1 hPa Calm     90 % 0 mm 0.0 W/m2 CLR
05:13 -13.8 °C -14.6 °C 34659.1 hPa Calm     90 % 0 mm 0.0 W/m2 CLR
05:18 -13.8 °C -14.6 °C 34659.1 hPa Calm     90 % 0 mm 0.0 W/m2 CLR
05:23 -13.8 °C -14.6 °C 34659.1 hPa Calm     90 % 0 mm 0.0 W/m2 CLR
05:25 -13.8 °C -14.6 °C 34659.1 hPa Calm     90 % 0 mm 0.0 W/m2 CLR
05:30 -13.8 °C -14.6 °C 34659.1 hPa Calm     90 % 0 mm 0.0 W/m2 CLR
05:35 -14.1 °C -14.9 °C 34659.1 hPa Calm     90 % 0 mm 0.0 W/m2 CLR
05:40 -14.1 °C -14.9 °C 34659.1 hPa Calm     90 % 0 mm 0.0 W/m2 CLR
05:45 -14.1 °C -14.9 °C 34659.1 hPa Calm     90 % 0 mm 0.0 W/m2 CLR
05:50 -14.1 °C -14.9 °C 34659.1 hPa Calm     90 % 0 mm 0.0 W/m2 CLR
05:55 -14.4 °C -15.2 °C 34659.1 hPa Calm     90 % 0 mm 0.0 W/m2 CLR
06:00 -14.4 °C -15.2 °C 34659.1 hPa Calm     90 % 0 mm 0.0 W/m2 CLR
06:05 -14.4 °C -15.2 °C 34659.1 hPa Calm     90 % 0 mm 0.0 W/m2 CLR
06:06 -14.4 °C -15.2 °C 34659.1 hPa Calm     90 % 0 mm 0.0 W/m2 CLR
06:11 -14.4 °C -15.1 °C 34659.1 hPa Calm     91 % 0 mm 0.0 W/m2 CLR
06:16 -14.4 °C -15.1 °C 34659.1 hPa Calm     91 % 0 mm 0.0 W/m2 CLR
06:18 -14.4 °C -15.1 °C 34659.1 hPa Calm     91 % 0 mm 0.0 W/m2 CLR
06:23 -14.4 °C -15.1 °C 34659.1 hPa Calm     91 % 0 mm 0.0 W/m2 CLR
06:28 -14.7 °C -15.5 °C 34659.1 hPa Calm     90 % 0 mm 0.0 W/m2 CLR
06:33 -14.7 °C -15.5 °C 34659.1 hPa Calm     90 % 0 mm 0.0 W/m2 CLR
06:38 -14.7 °C -15.4 °C 34659.1 hPa Calm     91 % 0 mm 0.0 W/m2 CLR
06:43 -14.7 °C -15.4 °C 34659.1 hPa Calm     91 % 0 mm 0.0 W/m2 CLR
06:48 -14.7 °C -15.4 °C 34659.1 hPa Calm     91 % 0 mm 0.0 W/m2 CLR
06:53 -14.7 °C -15.4 °C 34659.1 hPa Calm     91 % 0 mm 0.0 W/m2 CLR
06:58 -14.7 °C -15.4 °C 34659.1 hPa Calm     91 % 0 mm 0.0 W/m2 CLR
07:03 -14.7 °C -15.4 °C 34669.3 hPa Calm     91 % 0 mm 0.0 W/m2 CLR
07:08 -14.7 °C -15.4 °C 34669.3 hPa Calm     91 % 0 mm 0.0 W/m2 CLR
07:13 -14.7 °C -15.4 °C 34659.1 hPa Calm     91 % 0 mm 0.0 W/m2 CLR
07:23 -14.7 °C -15.4 °C 34669.3 hPa Calm     91 % 0 mm 0.0 W/m2 CLR
07:28 -14.7 °C -15.4 °C 34659.1 hPa Calm     91 % 0 mm 0.0 W/m2 CLR
07:33 -15 °C -15.7 °C 34659.1 hPa Calm     91 % 0 mm 0.0 W/m2 CLR
07:38 -15 °C -15.7 °C 34659.1 hPa Calm     91 % 0 mm 0.0 W/m2 CLR
07:43 -15 °C -15.7 °C 34669.3 hPa Calm     91 % 0 mm 0.0 W/m2 CLR
07:48 -15 °C -15.7 °C 34669.3 hPa Calm     91 % 0 mm 0.0 W/m2 CLR
07:53 -15 °C -15.7 °C 34669.3 hPa Calm     91 % 0 mm 0.0 W/m2 CLR
07:58 -15 °C -15.7 °C 34669.3 hPa Calm     91 % 0 mm 0.0 W/m2 CLR
08:03 -15 °C -15.7 °C 34669.3 hPa Calm     91 % 0 mm 5.0 W/m2 OVC
08:08 -15 °C -15.7 °C 34669.3 hPa Calm     91 % 0 mm 7.0 W/m2 BKN
08:13 -15 °C -15.7 °C 34669.3 hPa Calm     92 % 0 mm 11.0 W/m2 BKN
08:18 -15 °C -15.7 °C 34669.3 hPa Calm     91 % 0 mm 12.0 W/m2 BKN
08:23 -15 °C -15.7 °C 34669.3 hPa Calm     91 % 0 mm 14.0 W/m2 BKN
08:33 -15 °C -15.7 °C 34669.3 hPa Calm     91 % 0 mm 23.0 W/m2 BKN
08:38 -14.7 °C -15.4 °C 34669.3 hPa Calm     91 % 0 mm 30.0 W/m2 BKN
08:43 -14.7 °C -15.4 °C 34669.3 hPa Calm     91 % 0 mm 42.0 W/m2 BKN
08:48 -14.7 °C -15.4 °C 34669.3 hPa Calm     91 % 0 mm 49.0 W/m2 SCT
08:53 -14.7 °C -15.4 °C 34669.3 hPa Calm     91 % 0 mm 70.0 W/m2 FEW
08:58 -14.4 °C -15.2 °C 34682.8 hPa Calm     90 % 0 mm 84.0 W/m2 FEW
09:03 -14.4 °C -15.2 °C 34682.8 hPa Calm     90 % 0 mm 97.0 W/m2 CLR
09:04 -14.4 °C -15.2 °C 34682.8 hPa Calm     90 % 0 mm 97.0 W/m2 FEW
09:14 -14.1 °C -15.1 °C 34682.8 hPa Calm     88 % 0 mm 104.0 W/m2 CLR
09:19 -13.8 °C -14.9 °C 34669.3 hPa Calm     87 % 0 mm 100.0 W/m2 CLR
09:24 -13.4 °C -14.7 °C 34682.8 hPa Calm     86 % 0 mm 118.0 W/m2 CLR
09:29 -13.4 °C -14.8 °C 34682.8 hPa Calm     85 % 0 mm 188.0 W/m2 CLR
09:34 -13.2 °C -14.5 °C 34682.8 hPa Calm     85 % 0 mm 207.0 W/m2 CLR
09:39 -13.2 °C -14.7 °C 34682.8 hPa Calm     83 % 0 mm 227.0 W/m2 CLR
09:44 -12.8 °C -14.3 °C 34682.8 hPa Calm     83 % 0 mm 244.0 W/m2 CLR
09:49 -12.6 °C -14.3 °C 34682.8 hPa Calm     81 % 0 mm 260.0 W/m2 CLR
09:54 -12.2 °C -14.1 °C 34682.8 hPa Calm     80 % 0 mm 278.0 W/m2 CLR
09:59 -11.9 °C -13.8 °C 34682.8 hPa Calm     79 % 0 mm 294.0 W/m2 CLR
10:04 -11.9 °C -13.8 °C 34682.8 hPa Calm     79 % 0 mm 308.0 W/m2 CLR
10:14 -11.3 °C -13.4 °C 34669.3 hPa Calm     78 % 0 mm 339.0 W/m2 CLR
10:19 -11 °C -13.2 °C 34669.3 hPa Calm     77 % 0 mm 353.0 W/m2 CLR
10:24 -10.7 °C -12.9 °C 34669.3 hPa Calm     77 % 0 mm 367.0 W/m2 CLR
10:29 -10.7 °C -12.9 °C 34669.3 hPa Calm     76 % 0 mm 380.0 W/m2 CLR
10:34 -10.4 °C -12.8 °C 34669.3 hPa Calm     75 % 0 mm 397.0 W/m2 CLR
10:44 -10.1 °C -12.9 °C 34669.3 hPa Calm     71 % 0 mm 420.0 W/m2 CLR
10:49 -9.8 °C -13 °C 34669.3 hPa Calm     68 % 0 mm 434.0 W/m2 CLR
10:54 -9.4 °C -12.9 °C 34669.3 hPa Calm     66 % 0 mm 450.0 W/m2 CLR
10:59 -9.1 °C -13 °C 34669.3 hPa SE 3.1 km/h 3.1 km/h 63 % 0 mm 461.0 W/m2 CLR
11:04 -8.8 °C -13.2 °C 34669.3 hPa Calm     60 % 0 mm 473.0 W/m2 CLR
11:09 -8.8 °C -13.3 °C 34669.3 hPa ESE 11.9 km/h 11.9 km/h 59 % 0 mm 483.0 W/m2 CLR
11:14 -8.5 °C -13.4 °C 34669.3 hPa SSW 15 km/h 15 km/h 56 % 0 mm 497.0 W/m2 CLR
11:19 -8.2 °C -13.1 °C 34669.3 hPa South 5.1 km/h 5.1 km/h 56 % 0 mm 506.0 W/m2 CLR
11:29 -7.9 °C -13.6 °C 34659.1 hPa WSW 23.8 km/h 23.8 km/h 51 % 0 mm 531.0 W/m2 CLR
11:35 -7.6 °C -13.2 °C 34659.1 hPa WSW 11.9 km/h 11.9 km/h 52 % 0 mm 540.0 W/m2 CLR
11:40 -7.6 °C -13.3 °C 34659.1 hPa West 23.3 km/h 23.3 km/h 51 % 0 mm 552.0 W/m2 CLR
11:45 -7.3 °C -13.2 °C 34659.1 hPa SW 20.9 km/h 20.9 km/h 50 % 0 mm 563.0 W/m2 CLR
11:50 -7.3 °C -13.4 °C 34659.1 hPa SW 15 km/h 15 km/h 49 % 0 mm 571.0 W/m2 CLR
11:55 -7 °C -13.2 °C 34659.1 hPa WSW 20.9 km/h 20.9 km/h 48 % 0 mm 578.0 W/m2 CLR
12:00 -7 °C -13.2 °C 34659.1 hPa West 18.2 km/h 18.2 km/h 48 % 0 mm 591.0 W/m2 CLR
12:05 -6.7 °C -13.2 °C 34659.1 hPa WSW 26.9 km/h 26.9 km/h 47 % 0 mm 598.0 W/m2 CLR
12:10 -6.3 °C -12.9 °C 34659.1 hPa SSW 11.9 km/h 11.9 km/h 47 % 0 mm 605.0 W/m2 CLR
12:15 -6.3 °C -12.9 °C 34659.1 hPa Calm   1 km/h 47 % 0 mm 613.0 W/m2 CLR
12:20 -6.3 °C -13.2 °C 34659.1 hPa WSW 9 km/h   45 % 0 mm 621.0 W/m2 CLR
12:25 -6.1 °C -12.9 °C 34659.1 hPa WSW 23.8 km/h 23.8 km/h 45 % 0 mm 629.0 W/m2 CLR
12:30 -6.1 °C -13.1 °C 34645.6 hPa SW 23.8 km/h 23.8 km/h 44 % 0 mm 635.0 W/m2 CLR
12:35 -6.1 °C -12.9 °C 34645.6 hPa SW 17.9 km/h 17.9 km/h 45 % 0 mm 640.0 W/m2 CLR
12:40 -6.1 °C -13.1 °C 34645.6 hPa SSW 20.9 km/h 20.9 km/h 44 % 0 mm 645.0 W/m2 CLR
12:45 -6.1 °C -13.3 °C 34645.6 hPa Calm     43 % 0 mm 652.0 W/m2 CLR
12:50 -6.1 °C -13.3 °C 34645.6 hPa South 11.9 km/h 11.9 km/h 43 % 0 mm 656.0 W/m2 CLR
12:55 -6.1 °C -13.3 °C 34645.6 hPa SW 9 km/h   43 % 0 mm 661.0 W/m2 CLR
13:00 -5.7 °C -13.2 °C 34645.6 hPa SSW 17.9 km/h 17.9 km/h 42 % 0 mm 668.0 W/m2 CLR
13:05 -5.4 °C -12.9 °C 34645.6 hPa Calm     42 % 0 mm 670.0 W/m2 CLR
13:10 -5.4 °C -13.2 °C 34645.6 hPa West 10.3 km/h 10.3 km/h 41 % 0 mm 675.0 W/m2 CLR
13:15 -5.4 °C -13.2 °C 34645.6 hPa Calm     41 % 0 mm 679.0 W/m2 CLR
13:20 -5.7 °C -13.4 °C 34635.4 hPa SSW 9 km/h 9 km/h 41 % 0 mm 682.0 W/m2 CLR
13:25 -5.7 °C -13.4 °C 34635.4 hPa West 6 km/h 6 km/h 41 % 0 mm 680.0 W/m2 CLR
13:30 -5.4 °C -13.4 °C 34635.4 hPa SSW 9 km/h 9 km/h 40 % 0 mm 682.0 W/m2 CLR
13:35 -5.7 °C -13.4 °C 34635.4 hPa West 20.8 km/h 20.8 km/h 41 % 0 mm 686.0 W/m2 CLR
13:40 -5.4 °C -13.2 °C 34635.4 hPa SW 7.7 km/h 7.7 km/h 41 % 0 mm 686.0 W/m2 CLR
13:45 -5.4 °C -13.4 °C 34625.2 hPa Calm     40 % 0 mm 686.0 W/m2 CLR
13:50 -5.4 °C -13.4 °C 34625.2 hPa West 17.9 km/h 17.9 km/h 40 % 0 mm 687.0 W/m2 CLR
13:55 -4.8 °C -12.6 °C 34625.2 hPa NW 6 km/h   41 % 0 mm 687.0 W/m2 CLR
13:57 -4.8 °C -12.8 °C 34625.2 hPa NW 15.6 km/h 15.6 km/h 40 % 0 mm 687.0 W/m2 CLR
14:02 -5.1 °C -13.1 °C 34625.2 hPa SSW 26.9 km/h 26.9 km/h 40 % 0 mm 687.0 W/m2 CLR
14:07 -5.1 °C -13.3 °C 34625.2 hPa WSW 23.8 km/h 23.8 km/h 39 % 0 mm 686.0 W/m2 CLR
14:12 -4.8 °C -13 °C 34611.7 hPa WSW 17.9 km/h 17.9 km/h 39 % 0 mm 682.0 W/m2 CLR
14:17 -4.8 °C -13.2 °C 34611.7 hPa Calm     38 % 0 mm 682.0 W/m2 CLR
14:22 -4.5 °C -13.4 °C 34611.7 hPa NW 12.9 km/h 12.9 km/h 36 % 0 mm 680.0 W/m2 CLR
14:27 -4.8 °C -13.4 °C 34611.7 hPa WSW 15 km/h 15 km/h 37 % 0 mm 675.0 W/m2 CLR
14:32 -4.5 °C -13.6 °C 34611.7 hPa SW 28.5 km/h 28.5 km/h 35 % 0 mm 673.0 W/m2 CLR
14:37 -4.5 °C -13.6 °C 34611.7 hPa SSW 25.9 km/h 25.9 km/h 35 % 0 mm 673.0 W/m2 CLR
14:42 -4.5 °C -14.1 °C 34601.5 hPa SW 17.9 km/h 17.9 km/h 33 % 0 mm 668.0 W/m2 CLR
14:47 -4.5 °C -14.1 °C 34601.5 hPa WSW 20.9 km/h 20.9 km/h 33 % 0 mm 664.0 W/m2 CLR
14:52 -4.5 °C -14.3 °C 34601.5 hPa West 23.8 km/h 23.8 km/h 32 % 0 mm 657.0 W/m2 CLR
14:57 -4.5 °C -14.3 °C 34601.5 hPa WSW 23.8 km/h 23.8 km/h 32 % 0 mm 652.0 W/m2 CLR
15:02 -4.2 °C -13.8 °C 34591.4 hPa WSW 26.9 km/h 26.9 km/h 33 % 0 mm 649.0 W/m2 CLR
15:07 -4.2 °C -14.1 °C 34591.4 hPa SW 23.8 km/h 23.8 km/h 32 % 0 mm 643.0 W/m2 CLR
15:12 -4.2 °C -14.1 °C 34591.4 hPa SSW 23.8 km/h 23.8 km/h 32 % 0 mm 636.0 W/m2 CLR
15:17 -4.2 °C -14.3 °C 34591.4 hPa WSW 26.9 km/h 26.9 km/h 31 % 0 mm 629.0 W/m2 CLR
15:22 -4.2 °C -14.3 °C 34577.8 hPa SW 18.2 km/h 18.2 km/h 31 % 0 mm 624.0 W/m2 CLR
15:27 -4.2 °C -14.6 °C 34577.8 hPa SSW 9 km/h 9 km/h 30 % 0 mm 619.0 W/m2 CLR
15:32 -4.2 °C -14.9 °C 34577.8 hPa West 9 km/h   29 % 0 mm 612.0 W/m2 CLR
15:37 -3.9 °C -14.9 °C 34577.8 hPa SSW 9 km/h   28 % 0 mm 601.0 W/m2 CLR
15:42 -3.9 °C -15.2 °C 34567.7 hPa WSW 11.9 km/h 11.9 km/h 27 % 0 mm 591.0 W/m2 CLR
15:47 -3.9 °C -15.4 °C 34567.7 hPa WSW 23.3 km/h 23.3 km/h 26 % 0 mm 584.0 W/m2 CLR
15:52 -4.2 °C -15.4 °C 34567.7 hPa WSW 12.9 km/h 12.9 km/h 27 % 0 mm 577.0 W/m2 CLR
15:57 -3.9 °C -15.4 °C 34567.7 hPa SSW 20.9 km/h 20.9 km/h 26 % 0 mm 563.0 W/m2 CLR
15:59 -3.9 °C -15.8 °C 34567.7 hPa WSW 15 km/h 15 km/h 25 % 0 mm 559.0 W/m2 CLR
16:04 -3.9 °C -15.4 °C 34567.7 hPa SW 20.9 km/h 20.9 km/h 26 % 0 mm 548.0 W/m2 CLR
16:09 -3.9 °C -15.4 °C 34567.7 hPa SW 17.9 km/h 17.9 km/h 26 % 0 mm 538.0 W/m2 CLR
16:14 -3.9 °C -15.2 °C 34567.7 hPa Calm     27 % 0 mm 526.0 W/m2 CLR
16:19 -3.9 °C -14.9 °C 34567.7 hPa SW 20.8 km/h 20.8 km/h 28 % 0 mm 513.0 W/m2 CLR
16:24 -3.9 °C -15.2 °C 34554.1 hPa SW 26.9 km/h 26.9 km/h 27 % 0 mm 503.0 W/m2 CLR
16:29 -3.9 °C -15.2 °C 34554.1 hPa SW 11.9 km/h 11.9 km/h 27 % 0 mm 492.0 W/m2 CLR
16:34 -3.9 °C -14.9 °C 34554.1 hPa WSW 23.3 km/h 23.3 km/h 28 % 0 mm 478.0 W/m2 CLR
16:39 -3.9 °C -15.2 °C 34554.1 hPa Calm     27 % 0 mm 464.0 W/m2 CLR
16:44 -3.9 °C -14.9 °C 34554.1 hPa West 20.9 km/h 20.9 km/h 28 % 0 mm 454.0 W/m2 CLR
16:49 -4.2 °C -15.2 °C 34554.1 hPa WNW 12.9 km/h 12.9 km/h 28 % 0 mm 441.0 W/m2 CLR
16:55 -4.2 °C -15.7 °C 34554.1 hPa West 18.2 km/h 18.2 km/h 26 % 0 mm 427.0 W/m2 CLR
17:00 -4.2 °C -15.4 °C 34554.1 hPa South 9 km/h   27 % 0 mm 410.0 W/m2 CLR
17:05 -3.9 °C -15.2 °C 34544 hPa Calm     27 % 0 mm 396.0 W/m2 CLR
17:10 -3.9 °C -15.4 °C 34544 hPa Calm     26 % 0 mm 383.0 W/m2 CLR
17:15 -4.2 °C -15.7 °C 34544 hPa WNW 23.8 km/h 23.8 km/h 26 % 0 mm 369.0 W/m2 CLR
17:20 -3.9 °C -15.4 °C 34544 hPa Calm   0.3 km/h 26 % 0 mm 353.0 W/m2 CLR
17:25 -3.9 °C -15.4 °C 34544 hPa Calm     26 % 0 mm 339.0 W/m2 CLR
17:30 -4.2 °C -16.1 °C 34544 hPa NNW 3.1 km/h   25 % 0 mm 325.0 W/m2 CLR
17:35 -4.2 °C -16.1 °C 34544 hPa WNW 9 km/h 9 km/h 25 % 0 mm 309.0 W/m2 CLR
17:40 -4.2 °C -16.1 °C 34544 hPa Calm     25 % 0 mm 294.0 W/m2 CLR
17:45 -4.2 °C -16.1 °C 34544 hPa WSW 25.9 km/h 25.9 km/h 25 % 0 mm 278.0 W/m2 CLR
17:50 -4.5 °C -16.3 °C 34544 hPa West 17.9 km/h 17.9 km/h 25 % 0 mm 258.0 W/m2 CLR
18:00 -4.5 °C -16.3 °C 34533.8 hPa WNW 15 km/h 15 km/h 25 % 0 mm 229.0 W/m2 CLR
18:05 -4.8 °C -16.6 °C 34533.8 hPa Calm     25 % 0 mm 207.0 W/m2 CLR
18:10 -4.8 °C -16.6 °C 34544 hPa Calm     25 % 0 mm 185.0 W/m2 CLR
18:15 -5.1 °C -16.8 °C 34533.8 hPa Calm     25 % 0 mm 167.0 W/m2 CLR
18:20 -5.4 °C -17.1 °C 34544 hPa West 18.2 km/h 18.2 km/h 25 % 0 mm 149.0 W/m2 CLR
18:25 -5.4 °C -17.4 °C 34544 hPa Calm     24 % 0 mm 134.0 W/m2 CLR
18:31 -5.7 °C -17.7 °C 34544 hPa Calm     24 % 0 mm 113.0 W/m2 CLR
18:36 -6.1 °C -17.9 °C 34544 hPa Calm     24 % 0 mm 97.0 W/m2 CLR
18:41 -6.3 °C -17.9 °C 34544 hPa Calm     25 % 0 mm 81.0 W/m2 FEW
18:46 -6.7 °C -18.2 °C 34544 hPa Calm     25 % 0 mm 60.0 W/m2 SCT
18:56 -7.3 °C -18.7 °C 34544 hPa Calm     25 % 0 mm 40.0 W/m2 BKN
19:01 -7.6 °C -18.7 °C 34544 hPa Calm     26 % 0 mm 26.0 W/m2 BKN
19:05 -7.9 °C -18.9 °C 34544 hPa West 3.1 km/h   26 % 0 mm 19.0 W/m2 BKN
19:11 -8.2 °C -18.8 °C 34544 hPa Calm     27 % 0 mm 14.0 W/m2 BKN
19:16 -8.8 °C -19.1 °C 34544 hPa Calm     28 % 0 mm 12.0 W/m2 BKN
19:21 -8.8 °C -19.1 °C 34554.1 hPa Calm     28 % 0 mm 9.0 W/m2 BKN
19:26 -9.1 °C -19.1 °C 34554.1 hPa Calm     29 % 0 mm 7.0 W/m2 BKN
19:36 -9.4 °C -19.1 °C 34554.1 hPa Calm     30 % 0 mm 0.0 W/m2 OVC
19:41 -9.8 °C -19.2 °C 34554.1 hPa Calm     31 % 0 mm 0.0 W/m2 CLR
19:46 -9.8 °C -18.9 °C 34554.1 hPa Calm     32 % 0 mm 0.0 W/m2 CLR
19:56 -9.4 °C -18.4 °C 34567.7 hPa Calm     33 % 0 mm 0.0 W/m2 CLR
20:01 -9.4 °C -18.2 °C 34567.7 hPa Calm     34 % 0 mm 0.0 W/m2 CLR
20:06 -9.8 °C -18.2 °C 34567.7 hPa Calm     35 % 0 mm 0.0 W/m2 CLR
20:11 -9.8 °C -18.2 °C 34567.7 hPa Calm     35 % 0 mm 0.0 W/m2 CLR
20:16 -10.1 °C -18.3 °C 34567.7 hPa Calm     36 % 0 mm 0.0 W/m2 CLR
20:21 -10.1 °C -18.3 °C 34567.7 hPa Calm     36 % 0 mm 0.0 W/m2 CLR
20:26 -10.4 °C -18.4 °C 34567.7 hPa Calm     37 % 0 mm 0.0 W/m2 CLR
20:31 -10.4 °C -18.2 °C 34567.7 hPa Calm     38 % 0 mm 0.0 W/m2 CLR
20:36 -10.7 °C -18.4 °C 34577.8 hPa Calm     38 % 0 mm 0.0 W/m2 CLR
20:41 -10.7 °C -18.1 °C 34577.8 hPa Calm     40 % 0 mm 0.0 W/m2 CLR
20:51 -11.3 °C -18.4 °C 34577.8 hPa Calm     41 % 0 mm 0.0 W/m2 CLR
20:56 -11.3 °C -18.2 °C 34577.8 hPa Calm     42 % 0 mm 0.0 W/m2 CLR
21:01 -11.6 °C -18.5 °C 34577.8 hPa Calm     42 % 0 mm 0.0 W/m2 CLR
21:06 -11.6 °C -18.5 °C 34577.8 hPa Calm     42 % 0 mm 0.0 W/m2 CLR
21:11 -11.9 °C -18.6 °C 34577.8 hPa Calm     43 % 0 mm 0.0 W/m2 CLR
21:16 -11.9 °C -18.6 °C 34577.8 hPa Calm     43 % 0 mm 0.0 W/m2 CLR
21:21 -12.2 °C -18.7 °C 34591.4 hPa Calm     44 % 0 mm 0.0 W/m2 CLR
21:26 -12.2 °C -18.7 °C 34591.4 hPa Calm     44 % 0 mm 0.0 W/m2 CLR
21:31 -12.6 °C -18.8 °C 34591.4 hPa SE 15.6 km/h 15.6 km/h 45 % 0 mm 0.0 W/m2 CLR
21:36 -12.6 °C -18.8 °C 34591.4 hPa SSE 6 km/h 6 km/h 45 % 0 mm 0.0 W/m2 CLR
21:41 -12.8 °C -18.9 °C 34591.4 hPa SE 11.9 km/h 11.9 km/h 46 % 0 mm 0.0 W/m2 CLR
21:46 -12.8 °C -18.9 °C 34591.4 hPa ESE 9 km/h 9 km/h 46 % 0 mm 0.0 W/m2 CLR
21:51 -12.8 °C -18.9 °C 34591.4 hPa SE 9 km/h 9 km/h 46 % 0 mm 0.0 W/m2 CLR
22:01 -13.2 °C -19.1 °C 34591.4 hPa Calm     47 % 0 mm 0.0 W/m2 CLR
22:06 -13.2 °C -19.1 °C 34591.4 hPa SE 15 km/h 15 km/h 47 % 0 mm 0.0 W/m2 CLR
22:11 -13.2 °C -19.1 °C 34591.4 hPa SE 9 km/h 9 km/h 47 % 0 mm 0.0 W/m2 CLR
22:16 -13.2 °C -18.9 °C 34601.5 hPa Calm     48 % 0 mm 0.0 W/m2 CLR
22:21 -13.2 °C -18.8 °C 34591.4 hPa SE 6 km/h 6 km/h 49 % 0 mm 0.0 W/m2 CLR
22:26 -13.4 °C -19.1 °C 34601.5 hPa Calm     49 % 0 mm 0.0 W/m2 CLR
22:31 -13.4 °C -19.1 °C 34591.4 hPa Calm     49 % 0 mm 0.0 W/m2 CLR
22:36 -13.4 °C -18.9 °C 34591.4 hPa Calm     50 % 0 mm 0.0 W/m2 CLR
22:41 -13.4 °C -18.9 °C 34601.5 hPa Calm     50 % 0 mm 0.0 W/m2 CLR
22:46 -13.4 °C -18.7 °C 34601.5 hPa Calm     51 % 0 mm 0.0 W/m2 CLR
22:51 -13.4 °C -18.7 °C 34601.5 hPa Calm     51 % 0 mm 0.0 W/m2 CLR
22:56 -13.8 °C -19.1 °C 34601.5 hPa SSE 9 km/h 9 km/h 51 % 0 mm 0.0 W/m2 CLR
23:01 -13.8 °C -19.2 °C 34601.5 hPa SE 9 km/h   50 % 0 mm 0.0 W/m2 CLR
23:06 -13.8 °C -19.1 °C 34601.5 hPa Calm     51 % 0 mm 0.0 W/m2 CLR
23:11 -14.1 °C -19.3 °C 34601.5 hPa Calm     51 % 0 mm 0.0 W/m2 CLR
23:16 -14.1 °C -19.2 °C 34601.5 hPa Calm     52 % 0 mm 0.0 W/m2 CLR
23:21 -14.1 °C -19.2 °C 34611.7 hPa SSE 6 km/h 6 km/h 52 % 0 mm 0.0 W/m2 CLR
23:26 -14.1 °C -19.2 °C 34611.7 hPa Calm     52 % 0 mm 0.0 W/m2 CLR
23:31 -14.1 °C -19.2 °C 34611.7 hPa SE 3.1 km/h   52 % 0 mm 0.0 W/m2 CLR
23:36 -14.4 °C -19.3 °C 34611.7 hPa Calm     53 % 0 mm 0.0 W/m2 CLR
23:41 -14.4 °C -19.2 °C 34611.7 hPa Calm     54 % 0 mm 0.0 W/m2 CLR
23:46 -14.4 °C -19.1 °C 34611.7 hPa Calm     55 % 0 mm 0.0 W/m2 CLR
23:51 -14.4 °C -19.1 °C 34611.7 hPa Calm     55 % 0 mm 0.0 W/m2 CLR
Lo Temps de Massalio
Compliments of Weather Underground - 1.25 mb